Coe Leni — A8VR8 — position and weather

sailwx.info

Track history (hours):
 
Tides and Currents Weather Stations Pressure Air Temp Water Temp Dewpoint Dewpoint Depression Visibility Wind Speed Wind Dir Waves Ship Positions

Coe Leni

Last reported at 2016-Sep-24 00:20 UTC. Time now 2016-Oct-01 10:28 UTC.
Position N 49°31' W 005°53'.

Length 138 m; draft 6.5 m.

Type: Ship. MMSI: 636092036.

Date/timePositionNaut miles runAvg speedWind from/ knotsBaromVisibWave heightAir tempDewpointWater temp
2016-Sep-24 00:20N 49°31' W 005°53'5711.6
2016-Sep-23 19:24N 49°42' W 004°27'4415.4
2016-Sep-23 16:33N 49°54' W 003°22'1515.4
2016-Sep-23 15:33N 49°59' W 002°59'13014.4
2016-Sep-23 06:32N 50°35' E 000°16'4314.5
2016-Sep-23 03:33N 50°58' E 001°14'1413.6
2016-Sep-23 02:33N 51°07' E 001°31'1515.1
2016-Sep-23 01:33N 51°16' E 001°49'1313.5
2016-Sep-23 00:34N 51°23' E 002°07'1414.2
2016-Sep-22 23:33N 51°23' E 002°30'4414.6
2016-Sep-22 20:34N 51°26' E 003°40'24 2.9
2016-Sep-22 12:27N 51°15' E 004°14'0 0.0
2016-Sep-22 04:33N 51°15' E 004°14'0 0.0
2016-Sep-22 03:33N 51°15' E 004°14'0 0.0
2016-Sep-22 00:33N 51°15' E 004°14'0 0.0
2016-Sep-21 23:30N 51°15' E 004°14'0 0.0
2016-Sep-21 22:33N 51°15' E 004°14'6 2.0
2016-Sep-21 19:33N 51°21' E 004°14'28 9.4
2016-Sep-21 16:33N 51°25' E 003°30'8711.9
2016-Sep-21 09:17N 50°46' E 001°26'23214.3
2016-Sep-20 17:06N 49°51' W 004°27'25211.5
2016-Sep-19 19:16N 54°01' W 005°22'1314.9
2016-Sep-19 18:25N 54°13' W 005°20'2613.8
2016-Sep-19 16:33N 54°39' W 005°24'18 4.1
2016-Sep-19 12:13N 54°37' W 005°54'0 0.0
2016-Sep-19 11:31N 54°37' W 005°54'0 0.0
2016-Sep-19 02:22N 54°37' W 005°54'0 0.0
2016-Sep-19 00:28N 54°37' W 005°54'0 0.0
2016-Sep-18 19:28N 54°37' W 005°54'0 0.0
2016-Sep-18 15:28N 54°37' W 005°54'0 0.0
2016-Sep-18 10:28N 54°37' W 005°54'0 0.0
2016-Sep-18 09:28N 54°37' W 005°54'0 0.0
2016-Sep-18 02:28N 54°37' W 005°54'0 0.0
2016-Sep-18 01:28N 54°37' W 005°54'0 0.0
2016-Sep-18 00:22N 54°37' W 005°54'0 0.0
2016-Sep-17 22:28N 54°37' W 005°54'0 0.0
2016-Sep-17 20:22N 54°37' W 005°54'0 0.0
2016-Sep-17 18:46N 54°37' W 005°54'13 0.5
2016-Sep-16 17:33N 54°43' W 005°35'2311.4
2016-Sep-16 15:33N 54°23' W 005°16'36 1.0
2016-Sep-15 04:32N 53°59' W 006°02'0 0.0
2016-Sep-15 03:26N 53°59' W 006°02'0 0.0
2016-Sep-15 01:20N 53°59' W 006°02'0 0.0
2016-Sep-14 22:29N 53°59' W 006°02'0 0.0
2016-Sep-14 21:20N 53°59' W 006°02'5 1.0
2016-Sep-14 16:29N 54°02' W 006°08'0 0.0
2016-Sep-14 03:11N 54°02' W 006°08'  
Track history (hours):
 
Tides and Currents Weather Stations Pressure Air Temp Water Temp Dewpoint Dewpoint Depression Visibility Wind Speed Wind Dir Waves Ship Positions

Coe Leni

Last reported at 2016-Sep-24 00:20 UTC. Time now 2016-Oct-01 10:28 UTC.
Position N 49°31' W 005°53'.

Length 138 m; draft 6.5 m.

Type: Ship. MMSI: 636092036.

Date/timePositionNaut miles runAvg speedWind from/ knotsBaromVisibWave heightAir tempDewpointWater temp
2016-Sep-24 00:20N 49°31' W 005°53'5711.6
2016-Sep-23 19:24N 49°42' W 004°27'4415.4
2016-Sep-23 16:33N 49°54' W 003°22'1515.4
2016-Sep-23 15:33N 49°59' W 002°59'13014.4
2016-Sep-23 06:32N 50°35' E 000°16'4314.5
2016-Sep-23 03:33N 50°58' E 001°14'1413.6
2016-Sep-23 02:33N 51°07' E 001°31'1515.1
2016-Sep-23 01:33N 51°16' E 001°49'1313.5
2016-Sep-23 00:34N 51°23' E 002°07'1414.2
2016-Sep-22 23:33N 51°23' E 002°30'4414.6
2016-Sep-22 20:34N 51°26' E 003°40'24 2.9
2016-Sep-22 12:27N 51°15' E 004°14'0 0.0
2016-Sep-22 04:33N 51°15' E 004°14'0 0.0
2016-Sep-22 03:33N 51°15' E 004°14'0 0.0
2016-Sep-22 00:33N 51°15' E 004°14'0 0.0
2016-Sep-21 23:30N 51°15' E 004°14'0 0.0
2016-Sep-21 22:33N 51°15' E 004°14'6 2.0
2016-Sep-21 19:33N 51°21' E 004°14'28 9.4
2016-Sep-21 16:33N 51°25' E 003°30'8711.9
2016-Sep-21 09:17N 50°46' E 001°26'23214.3
2016-Sep-20 17:06N 49°51' W 004°27'25211.5
2016-Sep-19 19:16N 54°01' W 005°22'1314.9
2016-Sep-19 18:25N 54°13' W 005°20'2613.8
2016-Sep-19 16:33N 54°39' W 005°24'18 4.1
2016-Sep-19 12:13N 54°37' W 005°54'0 0.0
2016-Sep-19 11:31N 54°37' W 005°54'0 0.0
2016-Sep-19 02:22N 54°37' W 005°54'0 0.0
2016-Sep-19 00:28N 54°37' W 005°54'0 0.0
2016-Sep-18 19:28N 54°37' W 005°54'0 0.0
2016-Sep-18 15:28N 54°37' W 005°54'0 0.0
2016-Sep-18 10:28N 54°37' W 005°54'0 0.0
2016-Sep-18 09:28N 54°37' W 005°54'0 0.0
2016-Sep-18 02:28N 54°37' W 005°54'0 0.0
2016-Sep-18 01:28N 54°37' W 005°54'0 0.0
2016-Sep-18 00:22N 54°37' W 005°54'0 0.0
2016-Sep-17 22:28N 54°37' W 005°54'0 0.0
2016-Sep-17 20:22N 54°37' W 005°54'0 0.0
2016-Sep-17 18:46N 54°37' W 005°54'13 0.5
2016-Sep-16 17:33N 54°43' W 005°35'2311.4
2016-Sep-16 15:33N 54°23' W 005°16'36 1.0
2016-Sep-15 04:32N 53°59' W 006°02'0 0.0
2016-Sep-15 03:26N 53°59' W 006°02'0 0.0
2016-Sep-15 01:20N 53°59' W 006°02'0 0.0
2016-Sep-14 22:29N 53°59' W 006°02'0 0.0
2016-Sep-14 21:20N 53°59' W 006°02'5 1.0
2016-Sep-14 16:29N 54°02' W 006°08'0 0.0
2016-Sep-14 03:11N 54°02' W 006°08'  

Dump ship's entire track history